Time;durP1;ratioP1;P1;durP2;ratioP2;P2;SDS_P1;SDS_P2;PMS_P1;PMS_P2;Temp;Humidity;BMP_temperature;BMP_pressure;BME280_temperature;BME280_humidity;BME280_pressure;Samples;Min_cycle;Max_cycle;Signal;HPM_P1;HPM_P2
2021/09/09 00:02:17;;;;;;;1.90;1.20;;;30.60;54.70;;;;;;5143360;27;20447;-41
2021/09/09 00:04:49;;;;;;;2.10;1.50;;;30.50;55.20;;;;;;5143933;27;20537;-41
2021/09/09 00:07:20;;;;;;;1.50;1.40;;;30.30;55.60;;;;;;5143625;27;20451;-42
2021/09/09 00:09:53;;;;;;;1.77;1.13;;;29.90;56.60;;;;;;5142733;27;20559;-42
2021/09/09 00:12:24;;;;;;;1.90;1.27;;;29.90;57.20;;;;;;5142519;27;20479;-42
2021/09/09 00:14:55;;;;;;;2.20;1.60;;;29.80;57.30;;;;;;5142778;27;20459;-42
2021/09/09 00:17:26;;;;;;;1.87;1.40;;;29.70;57.80;;;;;;5142886;27;20438;-43
2021/09/09 00:19:57;;;;;;;1.87;1.70;;;29.50;58.20;;;;;;5143370;27;20555;-41
2021/09/09 00:22:28;;;;;;;0.97;0.90;;;29.40;59.00;;;;;;5141631;27;20538;-41
2021/09/09 00:25:01;;;;;;;0.80;0.80;;;29.30;58.90;;;;;;5141778;27;20454;-41
2021/09/09 00:27:32;;;;;;;0.90;0.90;;;29.20;59.00;;;;;;5141977;27;20446;-42
2021/09/09 00:30:03;;;;;;;2.37;0.97;;;29.20;58.70;;;;;;5142723;27;20446;-42
2021/09/09 00:32:53;;;;;;;1.50;0.97;;;29.30;58.20;;;;;;5146485;27;20505;-42
2021/09/09 00:35:24;;;;;;;2.50;0.80;;;29.40;58.50;;;;;;5131836;28;20461;-42
2021/09/09 00:37:55;;;;;;;0.80;0.80;;;29.40;58.20;;;;;;5142782;27;20452;-42
2021/09/09 00:40:28;;;;;;;0.77;0.70;;;29.20;58.50;;;;;;5142580;28;20578;-41
2021/09/09 00:42:59;;;;;;;0.60;0.60;;;29.20;58.00;;;;;;5142310;27;20556;-42
2021/09/09 00:45:30;;;;;;;0.60;0.60;;;29.00;57.10;;;;;;5142635;28;20493;-41
2021/09/09 00:48:01;;;;;;;1.13;0.60;;;29.00;57.40;;;;;;5141295;28;20467;-41
2021/09/09 00:50:32;;;;;;;0.67;0.67;;;29.10;57.40;;;;;;5143561;28;20430;-41
2021/09/09 00:53:03;;;;;;;0.70;0.70;;;29.00;57.90;;;;;;5143803;27;20448;-42
2021/09/09 00:55:36;;;;;;;1.00;0.60;;;29.00;58.10;;;;;;5143354;27;20445;-42
2021/09/09 00:58:08;;;;;;;0.93;0.93;;;29.00;58.40;;;;;;5147622;27;20529;-42
2021/09/09 01:00:39;;;;;;;1.10;0.80;;;29.00;58.80;;;;;;5144974;27;20446;-42
2021/09/09 01:03:10;;;;;;;1.17;1.07;;;29.10;58.60;;;;;;5141903;27;20441;-42
2021/09/09 01:05:42;;;;;;;0.60;0.60;;;28.90;58.00;;;;;;5143922;27;20502;-42
2021/09/09 01:08:13;;;;;;;0.90;0.70;;;28.80;57.70;;;;;;5142951;27;20450;-42
2021/09/09 01:10:46;;;;;;;0.77;0.57;;;28.70;58.40;;;;;;5142703;27;20966;-42
2021/09/09 01:13:16;;;;;;;0.83;0.60;;;28.50;58.90;;;;;;5142467;28;20523;-42
2021/09/09 01:15:47;;;;;;;1.80;0.50;;;28.50;59.00;;;;;;5142399;28;20464;-41
2021/09/09 01:18:18;;;;;;;0.50;0.50;;;28.30;59.40;;;;;;5141659;27;20474;-42
2021/09/09 01:20:50;;;;;;;2.43;0.70;;;28.30;59.20;;;;;;5143664;27;20460;-42
2021/09/09 01:23:22;;;;;;;0.90;0.90;;;28.20;60.00;;;;;;5143220;28;20445;-42
2021/09/09 01:25:55;;;;;;;0.87;0.70;;;28.10;61.00;;;;;;5144119;27;20509;-42
2021/09/09 01:28:26;;;;;;;1.10;0.80;;;28.10;61.30;;;;;;5146285;27;20466;-42
2021/09/09 01:30:58;;;;;;;1.57;0.57;;;28.00;60.90;;;;;;5147065;27;20436;-42
2021/09/09 01:33:29;;;;;;;2.50;0.63;;;27.90;61.80;;;;;;5147463;27;20449;-42
2021/09/09 01:36:00;;;;;;;1.23;0.70;;;27.90;63.00;;;;;;5145962;27;20525;-42
2021/09/09 01:38:31;;;;;;;0.93;0.90;;;27.80;63.30;;;;;;5146731;27;20499;-42
2021/09/09 01:41:03;;;;;;;1.00;0.90;;;27.70;64.10;;;;;;5146358;27;20447;-42
2021/09/09 01:43:34;;;;;;;1.63;1.03;;;27.60;64.80;;;;;;5145521;27;20444;-42
2021/09/09 01:46:05;;;;;;;1.20;1.10;;;27.70;65.00;;;;;;5145845;27;20491;-43
2021/09/09 01:48:36;;;;;;;1.57;1.47;;;27.60;65.10;;;;;;5142719;27;20468;-42
2021/09/09 01:51:07;;;;;;;2.03;1.43;;;27.60;65.60;;;;;;5143770;27;20946;-42
2021/09/09 01:53:38;;;;;;;2.57;1.60;;;27.50;66.30;;;;;;5146299;27;20443;-42
2021/09/09 01:56:11;;;;;;;1.70;1.17;;;27.50;66.70;;;;;;5146000;27;20470;-42
2021/09/09 01:58:42;;;;;;;1.77;1.30;;;27.40;66.80;;;;;;5145999;27;20622;-43
2021/09/09 02:01:13;;;;;;;1.40;1.30;;;27.40;67.20;;;;;;5146428;27;20444;-42
2021/09/09 02:03:44;;;;;;;1.33;1.23;;;27.30;67.60;;;;;;5145700;27;20443;-42
2021/09/09 02:06:15;;;;;;;1.63;1.50;;;27.20;67.90;;;;;;5146326;27;20517;-42
2021/09/09 02:08:46;;;;;;;1.33;1.23;;;27.10;68.60;;;;;;5145751;27;20466;-42
2021/09/09 02:11:21;;;;;;;1.70;1.60;;;27.10;69.30;;;;;;5146603;27;20454;-42
2021/09/09 02:13:52;;;;;;;3.60;1.97;;;27.00;70.50;;;;;;5145201;27;20456;-42
2021/09/09 02:16:23;;;;;;;1.90;1.80;;;26.80;71.10;;;;;;5145423;27;20442;-42
2021/09/09 02:18:54;;;;;;;1.83;1.70;;;26.70;72.10;;;;;;5146013;27;20985;-42
2021/09/09 02:21:25;;;;;;;1.80;1.63;;;26.70;72.50;;;;;;5146586;27;20442;-43
2021/09/09 02:23:56;;;;;;;2.13;1.40;;;26.60;74.20;;;;;;5145423;27;20443;-43
2021/09/09 02:26:29;;;;;;;3.87;2.10;;;26.50;74.90;;;;;;5145511;27;20448;-42
2021/09/09 02:29:00;;;;;;;1.80;1.70;;;26.30;75.50;;;;;;5144514;27;20474;-42
2021/09/09 02:31:31;;;;;;;2.90;2.00;;;26.30;75.50;;;;;;5144284;27;20513;-42
2021/09/09 02:34:02;;;;;;;4.00;2.30;;;26.20;75.40;;;;;;5141238;27;20518;-42
2021/09/09 02:36:33;;;;;;;3.37;2.60;;;26.10;76.10;;;;;;5144849;27;20488;-43
2021/09/09 02:39:04;;;;;;;1.87;1.77;;;26.00;76.60;;;;;;5135750;27;20479;-43
2021/09/09 02:41:37;;;;;;;4.57;2.07;;;26.00;77.20;;;;;;5145657;27;20782;-43
2021/09/09 02:44:08;;;;;;;2.10;1.90;;;26.00;77.50;;;;;;5140231;27;20500;-42
2021/09/09 02:46:39;;;;;;;1.93;1.83;;;25.90;78.10;;;;;;5144551;27;20452;-41
2021/09/09 02:49:10;;;;;;;2.27;2.07;;;25.80;78.40;;;;;;5144308;27;20442;-43
2021/09/09 02:51:41;;;;;;;2.53;2.07;;;25.60;79.20;;;;;;5145756;27;20444;-43
2021/09/09 02:54:12;;;;;;;2.70;2.13;;;25.50;80.00;;;;;;5144595;27;20456;-41
2021/09/09 02:56:45;;;;;;;2.17;1.97;;;25.30;80.90;;;;;;5145121;27;20445;-42
2021/09/09 02:59:16;;;;;;;2.10;1.93;;;25.20;81.90;;;;;;5144472;27;20440;-42
2021/09/09 03:01:46;;;;;;;3.53;2.03;;;25.10;83.00;;;;;;5144243;27;20459;-41
2021/09/09 03:04:18;;;;;;;1.73;1.63;;;25.00;84.10;;;;;;5144551;27;20459;-41
2021/09/09 03:06:49;;;;;;;2.00;1.80;;;24.80;84.90;;;;;;5144906;27;20452;-42
2021/09/09 03:09:20;;;;;;;2.40;2.23;;;24.80;85.70;;;;;;5143889;27;20487;-42
2021/09/09 03:11:52;;;;;;;2.57;1.90;;;24.70;86.30;;;;;;5144328;27;21032;-42
2021/09/09 03:14:23;;;;;;;3.23;1.90;;;24.60;87.20;;;;;;5144140;27;20480;-42
2021/09/09 03:16:54;;;;;;;2.00;1.90;;;24.50;88.20;;;;;;5145389;27;20518;-42
2021/09/09 03:19:25;;;;;;;1.90;1.80;;;24.60;89.10;;;;;;5144276;27;20460;-42
2021/09/09 03:21:56;;;;;;;3.30;2.00;;;24.50;89.70;;;;;;5145045;27;20456;-41
2021/09/09 03:24:27;;;;;;;2.33;2.13;;;24.40;90.70;;;;;;5141417;27;20516;-42
2021/09/09 03:26:59;;;;;;;2.67;2.10;;;24.30;91.30;;;;;;5140738;27;20461;-42
2021/09/09 03:29:30;;;;;;;1.60;1.50;;;24.20;92.00;;;;;;5143745;27;20438;-42
2021/09/09 03:32:03;;;;;;;2.00;1.80;;;24.10;92.60;;;;;;5144168;27;20963;-42
2021/09/09 03:34:34;;;;;;;2.00;1.70;;;24.00;93.00;;;;;;5143927;27;20468;-42
2021/09/09 03:37:05;;;;;;;2.00;1.70;;;23.90;93.80;;;;;;5141157;27;20474;-42
2021/09/09 03:39:36;;;;;;;1.93;1.73;;;23.80;94.10;;;;;;5140073;27;20448;-42
2021/09/09 03:42:08;;;;;;;2.40;1.70;;;23.80;94.90;;;;;;5144580;27;20536;-42
2021/09/09 03:44:40;;;;;;;2.10;2.00;;;23.60;95.90;;;;;;5142841;27;20524;-42
2021/09/09 03:47:11;;;;;;;2.40;2.20;;;23.50;97.10;;;;;;5142824;27;20479;-42
2021/09/09 03:49:42;;;;;;;2.27;2.07;;;23.50;97.40;;;;;;5142464;27;20509;-41
2021/09/09 03:52:13;;;;;;;6.23;2.20;;;23.50;97.50;;;;;;5142053;27;20449;-42
2021/09/09 03:54:44;;;;;;;2.33;2.10;;;23.50;97.80;;;;;;5142973;27;20472;-42
2021/09/09 03:57:16;;;;;;;3.10;2.40;;;23.50;98.30;;;;;;5142620;27;20484;-42
2021/09/09 03:59:48;;;;;;;3.63;1.83;;;23.50;98.50;;;;;;5143849;27;20433;-42
2021/09/09 04:02:19;;;;;;;2.20;2.10;;;23.40;99.00;;;;;;5144257;27;20449;-42
2021/09/09 04:04:51;;;;;;;3.83;2.20;;;23.30;99.30;;;;;;5143331;27;20448;-42
2021/09/09 04:07:22;;;;;;;3.80;1.87;;;23.20;99.80;;;;;;5142302;27;20472;-42
2021/09/09 04:09:53;;;;;;;3.40;2.00;;;23.20;99.90;;;;;;5143156;27;20457;-42
2021/09/09 04:12:25;;;;;;;3.30;2.30;;;23.10;99.90;;;;;;5143446;27;20452;-42
2021/09/09 04:14:56;;;;;;;3.50;2.57;;;23.10;99.90;;;;;;5143075;27;20452;-43
2021/09/09 04:17:27;;;;;;;3.90;2.40;;;23.00;99.90;;;;;;5142790;27;20457;-42
2021/09/09 04:19:58;;;;;;;1.93;1.80;;;22.90;99.90;;;;;;5141400;27;20558;-43
2021/09/09 04:22:29;;;;;;;2.33;2.13;;;22.90;99.90;;;;;;5143967;27;20445;-43
2021/09/09 04:25:02;;;;;;;2.30;2.10;;;22.90;99.90;;;;;;5142940;27;20509;-43
2021/09/09 04:27:34;;;;;;;3.37;2.30;;;22.90;99.90;;;;;;5142827;27;20555;-42
2021/09/09 04:30:06;;;;;;;3.50;1.97;;;22.90;99.90;;;;;;5143924;27;20500;-41
2021/09/09 04:32:39;;;;;;;2.20;2.00;;;22.80;99.90;;;;;;5141926;27;20472;-42
2021/09/09 04:35:10;;;;;;;2.60;2.30;;;22.80;99.90;;;;;;5142319;27;20484;-42
2021/09/09 04:37:41;;;;;;;5.17;2.00;;;22.80;99.90;;;;;;5142577;27;20615;-42
2021/09/09 04:40:14;;;;;;;2.40;2.10;;;22.80;99.90;;;;;;5142706;28;20484;-42
2021/09/09 04:42:46;;;;;;;1.93;1.83;;;22.80;99.90;;;;;;5143116;27;20502;-42
2021/09/09 04:45:18;;;;;;;2.10;1.90;;;22.80;99.90;;;;;;5142281;27;20472;-42
2021/09/09 04:47:49;;;;;;;2.80;2.00;;;22.80;99.90;;;;;;5142176;28;20449;-41
2021/09/09 04:50:19;;;;;;;2.23;2.00;;;22.80;99.90;;;;;;5127111;28;20449;-42
2021/09/09 04:52:50;;;;;;;2.70;2.30;;;22.80;99.90;;;;;;5143000;27;20853;-42
2021/09/09 04:55:21;;;;;;;2.27;2.07;;;22.90;99.90;;;;;;5142917;28;20565;-42
2021/09/09 04:57:54;;;;;;;2.00;1.80;;;22.80;99.90;;;;;;5141400;28;20571;-42
2021/09/09 05:00:25;;;;;;;2.60;2.00;;;22.70;99.90;;;;;;5139734;27;20491;-42
2021/09/09 05:02:56;;;;;;;2.97;2.30;;;22.70;99.90;;;;;;5146202;27;20459;-42
2021/09/09 05:05:27;;;;;;;2.50;1.97;;;22.70;99.90;;;;;;5147411;27;20576;-42
2021/09/09 05:07:58;;;;;;;2.50;2.30;;;22.70;99.90;;;;;;5146774;27;20445;-41
2021/09/09 05:10:29;;;;;;;2.57;2.30;;;22.60;99.90;;;;;;5146522;27;20556;-42
2021/09/09 05:13:02;;;;;;;2.83;2.37;;;22.60;99.90;;;;;;5146323;27;21044;-42
2021/09/09 05:15:33;;;;;;;2.17;1.97;;;22.50;99.90;;;;;;5146351;27;20441;-41
2021/09/09 05:18:04;;;;;;;2.27;2.10;;;22.50;99.90;;;;;;5145529;27;20464;-42
2021/09/09 05:20:35;;;;;;;2.30;2.10;;;22.50;99.90;;;;;;5145482;27;20452;-42
2021/09/09 05:23:06;;;;;;;2.13;2.00;;;22.50;99.90;;;;;;5145962;27;20448;-41
2021/09/09 05:25:37;;;;;;;3.33;2.10;;;22.50;99.90;;;;;;5146658;27;20505;-42
2021/09/09 05:28:09;;;;;;;2.00;1.90;;;22.50;99.90;;;;;;5145331;27;20631;-42
2021/09/09 05:30:40;;;;;;;3.97;2.33;;;22.50;99.90;;;;;;5145345;27;20487;-42
2021/09/09 05:35:59;;;;;;;1.83;1.73;;;22.60;99.90;;;;;;5146186;27;20449;-43
2021/09/09 05:38:30;;;;;;;2.60;1.93;;;22.50;99.90;;;;;;5144633;27;20452;-44
2021/09/09 05:41:01;;;;;;;2.07;1.80;;;22.40;99.90;;;;;;5143442;27;20480;-43
2021/09/09 05:43:33;;;;;;;2.70;2.23;;;22.40;99.90;;;;;;5145740;27;20519;-41
2021/09/09 05:46:04;;;;;;;2.17;1.83;;;22.30;99.90;;;;;;5147263;27;20495;-43
2021/09/09 05:48:35;;;;;;;2.70;1.97;;;22.30;99.90;;;;;;5146166;27;20535;-43
2021/09/09 05:51:07;;;;;;;2.13;2.00;;;22.30;99.90;;;;;;5146709;27;20481;-42
2021/09/09 05:53:38;;;;;;;2.30;2.10;;;22.30;99.90;;;;;;5146017;27;20472;-42
2021/09/09 05:56:09;;;;;;;1.77;1.60;;;22.30;99.90;;;;;;5146008;27;20531;-42
2021/09/09 05:58:42;;;;;;;2.30;2.10;;;22.30;99.90;;;;;;5146017;27;20487;-41
2021/09/09 06:01:13;;;;;;;1.77;1.67;;;22.20;99.90;;;;;;5147028;27;20468;-42
2021/09/09 06:03:44;;;;;;;2.70;1.97;;;22.20;99.90;;;;;;5145306;27;20478;-42
2021/09/09 06:06:16;;;;;;;2.53;2.30;;;22.20;99.90;;;;;;5144761;27;20449;-42
2021/09/09 06:08:47;;;;;;;1.90;1.80;;;22.10;99.90;;;;;;5143807;27;20494;-41
2021/09/09 06:11:18;;;;;;;2.20;1.77;;;22.00;99.90;;;;;;5144698;27;20520;-42
2021/09/09 06:13:51;;;;;;;2.80;2.10;;;22.00;99.90;;;;;;5146563;27;20529;-42
2021/09/09 06:16:22;;;;;;;2.10;1.90;;;21.90;99.90;;;;;;5146234;27;20441;-41
2021/09/09 06:18:53;;;;;;;2.40;1.87;;;21.80;99.90;;;;;;5142343;27;20540;-41
2021/09/09 06:21:26;;;;;;;2.90;1.70;;;21.90;99.90;;;;;;5146565;27;20423;-41
2021/09/09 06:23:56;;;;;;;2.43;2.17;;;21.90;99.90;;;;;;5144399;27;20476;-42
2021/09/09 06:26:27;;;;;;;2.33;2.13;;;21.80;99.90;;;;;;5145876;27;20453;-42
2021/09/09 06:29:00;;;;;;;2.00;1.80;;;21.80;99.90;;;;;;5143028;27;20443;-41
2021/09/09 06:31:33;;;;;;;2.87;2.20;;;21.70;99.90;;;;;;5144690;27;20476;-42
2021/09/09 06:34:04;;;;;;;2.30;2.10;;;21.70;99.90;;;;;;5141431;27;20869;-42
2021/09/09 06:36:35;;;;;;;2.50;2.30;;;21.70;99.90;;;;;;5142782;27;20470;-41
2021/09/09 06:39:06;;;;;;;2.77;2.30;;;21.60;99.90;;;;;;5143755;27;20471;-42
2021/09/09 06:41:37;;;;;;;1.90;1.80;;;21.50;99.90;;;;;;5145628;27;20525;-42
2021/09/09 06:44:10;;;;;;;2.73;1.90;;;21.50;99.90;;;;;;5142415;27;20471;-42
2021/09/09 06:46:41;;;;;;;3.17;1.60;;;21.40;99.90;;;;;;5141190;27;20503;-42
2021/09/09 06:49:13;;;;;;;2.50;2.30;;;21.40;99.90;;;;;;5141094;27;20521;-42
2021/09/09 06:51:43;;;;;;;2.40;1.80;;;21.30;99.90;;;;;;5143431;27;20432;-42
2021/09/09 06:54:15;;;;;;;1.73;1.63;;;21.20;99.90;;;;;;5129126;27;20473;-42
2021/09/09 06:56:46;;;;;;;2.70;2.00;;;21.30;99.90;;;;;;5135895;27;20426;-42
2021/09/09 06:59:19;;;;;;;2.13;1.93;;;21.20;99.90;;;;;;5144658;27;20447;-42
2021/09/09 07:01:50;;;;;;;1.90;1.80;;;21.20;99.90;;;;;;5144630;27;20453;-41
2021/09/09 07:04:21;;;;;;;2.00;1.90;;;21.10;99.90;;;;;;5144520;27;20448;-42
2021/09/09 07:06:52;;;;;;;2.67;1.90;;;21.00;99.90;;;;;;5145176;27;20428;-42
2021/09/09 07:09:23;;;;;;;1.80;1.57;;;20.90;99.90;;;;;;5141614;27;20515;-42
2021/09/09 07:11:54;;;;;;;2.53;1.90;;;20.90;99.90;;;;;;5145526;27;20460;-42
2021/09/09 07:14:26;;;;;;;2.10;1.70;;;20.80;99.90;;;;;;5145462;27;20472;-42
2021/09/09 07:16:57;;;;;;;1.93;1.80;;;20.80;99.90;;;;;;5145281;27;20457;-42
2021/09/09 07:19:28;;;;;;;1.80;1.70;;;20.80;99.90;;;;;;5144599;27;20452;-42
2021/09/09 07:21:59;;;;;;;2.23;2.03;;;20.70;99.90;;;;;;5144759;27;20862;-42
2021/09/09 07:24:30;;;;;;;1.87;1.70;;;20.60;99.90;;;;;;5143980;27;20480;-42
2021/09/09 07:27:01;;;;;;;2.20;2.00;;;20.60;99.90;;;;;;5145115;27;20444;-41
2021/09/09 07:29:33;;;;;;;1.80;1.70;;;20.60;99.90;;;;;;5144441;27;20452;-42
2021/09/09 07:32:05;;;;;;;2.43;2.23;;;20.50;99.90;;;;;;5141095;27;20496;-40
2021/09/09 07:34:36;;;;;;;1.63;1.40;;;20.40;99.90;;;;;;5141020;27;20484;-42
2021/09/09 07:37:07;;;;;;;2.33;2.13;;;20.40;99.90;;;;;;5136819;27;20511;-42
2021/09/09 07:39:38;;;;;;;1.80;1.70;;;20.30;99.90;;;;;;5140841;27;20444;-42
2021/09/09 07:42:10;;;;;;;2.33;2.13;;;20.20;99.90;;;;;;5140550;27;20508;-42
2021/09/09 07:44:42;;;;;;;2.23;2.03;;;20.20;99.90;;;;;;5143436;27;20458;-42
2021/09/09 07:47:13;;;;;;;4.23;2.10;;;20.10;99.90;;;;;;5144043;27;20500;-42
2021/09/09 07:49:44;;;;;;;2.97;2.07;;;20.00;99.90;;;;;;5142279;27;20477;-42
2021/09/09 07:52:15;;;;;;;3.60;2.03;;;20.00;99.90;;;;;;5143491;27;20535;-42
2021/09/09 07:54:46;;;;;;;2.10;1.97;;;20.00;99.90;;;;;;5142469;27;20791;-42
2021/09/09 07:57:17;;;;;;;3.60;2.00;;;20.00;99.90;;;;;;5142837;27;20510;-43
2021/09/09 07:59:49;;;;;;;2.47;2.17;;;19.90;99.90;;;;;;5139693;27;20452;-42
2021/09/09 08:02:21;;;;;;;2.87;2.00;;;19.80;99.90;;;;;;5142523;27;20423;-42
2021/09/09 08:04:52;;;;;;;4.00;2.00;;;19.80;99.90;;;;;;5143909;27;20931;-42
2021/09/09 08:07:23;;;;;;;3.03;2.50;;;19.70;99.90;;;;;;5144012;27;20488;-42
2021/09/09 08:09:54;;;;;;;3.30;2.13;;;19.70;99.90;;;;;;5142122;27;20408;-42
2021/09/09 08:12:25;;;;;;;3.00;2.20;;;19.60;99.90;;;;;;5143933;27;20509;-42
2021/09/09 08:14:57;;;;;;;2.47;2.27;;;19.60;99.90;;;;;;5143356;27;20480;-41
2021/09/09 08:17:28;;;;;;;2.20;2.00;;;19.50;99.90;;;;;;5143967;27;20456;-42
2021/09/09 08:19:59;;;;;;;2.73;2.20;;;19.50;99.90;;;;;;5143609;27;20451;-42
2021/09/09 08:22:30;;;;;;;3.63;2.00;;;19.50;99.90;;;;;;5143872;27;20449;-41
2021/09/09 08:25:01;;;;;;;3.50;2.50;;;19.40;99.90;;;;;;5143506;27;20511;-42
2021/09/09 08:27:33;;;;;;;2.50;1.90;;;19.40;99.90;;;;;;5143380;27;21159;-43
2021/09/09 08:30:07;;;;;;;2.13;1.90;;;19.40;99.90;;;;;;5142155;27;20471;-43
2021/09/09 08:32:39;;;;;;;2.40;2.20;;;19.30;99.90;;;;;;5141584;27;20442;-42
2021/09/09 08:35:12;;;;;;;2.47;2.03;;;19.30;99.90;;;;;;5142792;27;20481;-41
2021/09/09 08:37:43;;;;;;;2.40;2.10;;;19.20;99.90;;;;;;5142925;27;20449;-42
2021/09/09 08:40:14;;;;;;;2.70;2.17;;;19.20;99.90;;;;;;5139648;28;20422;-42
2021/09/09 08:42:47;;;;;;;3.90;2.57;;;19.10;99.90;;;;;;5143389;27;20962;-42
2021/09/09 08:45:19;;;;;;;2.20;2.00;;;19.10;99.90;;;;;;5142745;27;20472;-41
2021/09/09 08:47:52;;;;;;;2.17;1.83;;;19.10;99.90;;;;;;5142375;28;20460;-42
2021/09/09 08:50:23;;;;;;;2.40;1.93;;;19.10;99.90;;;;;;5143215;28;20538;-42
2021/09/09 08:52:54;;;;;;;2.13;1.93;;;19.00;99.90;;;;;;5142974;28;20427;-42
2021/09/09 08:55:25;;;;;;;2.40;2.20;;;18.90;99.90;;;;;;5142658;27;20474;-41
2021/09/09 08:57:59;;;;;;;3.03;2.13;;;18.90;99.90;;;;;;5139688;27;20404;-42
2021/09/09 09:00:32;;;;;;;2.30;2.10;;;18.90;99.90;;;;;;5139604;28;20443;-43
2021/09/09 09:03:03;;;;;;;2.13;1.93;;;18.90;99.90;;;;;;5140488;28;20431;-41
2021/09/09 09:05:40;;;;;;;1.63;1.53;;;18.80;99.90;;;;;;5141005;28;20445;-42
2021/09/09 09:08:11;;;;;;;3.00;1.97;;;18.70;99.90;;;;;;5138907;28;20450;-42
2021/09/09 09:10:42;;;;;;;2.33;1.80;;;18.70;99.90;;;;;;5141143;28;20729;-42
2021/09/09 09:13:14;;;;;;;2.70;2.03;;;18.60;99.90;;;;;;5143496;28;20920;-43
2021/09/09 09:15:49;;;;;;;2.77;2.47;;;18.60;99.90;;;;;;5142631;27;20485;-42
2021/09/09 09:18:21;;;;;;;2.97;2.17;;;18.60;99.90;;;;;;5143294;27;20872;-42
2021/09/09 09:20:54;;;;;;;2.27;2.07;;;18.50;99.90;;;;;;5142410;27;20456;-41
2021/09/09 09:23:27;;;;;;;3.07;1.90;;;18.50;99.90;;;;;;5142961;27;20502;-42
2021/09/09 09:26:01;;;;;;;4.63;3.63;;;18.50;99.90;;;;;;5139982;28;20479;-42
2021/09/09 09:28:42;;;;;;;2.60;2.40;;;18.50;99.90;;;;;;5141674;27;20488;-42
2021/09/09 09:31:17;;;;;;;2.40;2.00;;;18.40;99.90;;;;;;5143047;27;20526;-42
2021/09/09 09:33:51;;;;;;;2.63;2.17;;;18.20;99.90;;;;;;5141899;27;20473;-42
2021/09/09 09:36:25;;;;;;;2.93;2.30;;;18.20;99.90;;;;;;5143146;27;20484;-42
2021/09/09 09:39:12;;;;;;;3.37;2.40;;;18.30;99.90;;;;;;5141851;27;20458;-41
2021/09/09 09:41:57;;;;;;;2.50;2.30;;;18.20;99.90;;;;;;5139978;28;20460;-42
2021/09/09 09:44:31;;;;;;;2.77;2.47;;;18.20;99.90;;;;;;5138677;28;20473;-42
2021/09/09 09:47:15;;;;;;;3.93;2.27;;;18.10;99.90;;;;;;5143873;27;20444;-42
2021/09/09 09:49:47;;;;;;;3.00;2.70;;;18.10;99.90;;;;;;5146065;27;20495;-42
2021/09/09 09:52:24;;;;;;;2.43;2.20;;;18.10;99.90;;;;;;5130234;27;20516;-41
2021/09/09 09:54:56;;;;;;;3.10;1.73;;;18.10;99.90;;;;;;5145840;27;20415;-43
2021/09/09 09:57:29;;;;;;;2.27;2.03;;;18.20;99.90;;;;;;5145072;27;20488;-42
2021/09/09 10:00:00;;;;;;;1.80;1.70;;;18.10;99.90;;;;;;5146361;27;20995;-42
2021/09/09 10:02:35;;;;;;;2.63;2.43;;;18.10;99.90;;;;;;5145594;27;20444;-41
2021/09/09 10:05:07;;;;;;;2.90;2.47;;;18.10;99.90;;;;;;5146144;27;21023;-41
2021/09/09 10:07:39;;;;;;;3.00;2.17;;;18.00;99.90;;;;;;5145987;27;20452;-41
2021/09/09 10:10:11;;;;;;;2.60;2.40;;;17.90;99.90;;;;;;5142965;27;20453;-42
2021/09/09 10:12:44;;;;;;;2.70;2.00;;;17.90;99.90;;;;;;5141815;27;20441;-42
2021/09/09 10:15:15;;;;;;;2.83;2.50;;;17.90;99.90;;;;;;5146181;27;20481;-42
2021/09/09 10:18:01;;;;;;;2.50;2.30;;;17.80;99.90;;;;;;5144706;27;20484;-42
2021/09/09 10:20:34;;;;;;;2.37;2.10;;;17.80;99.90;;;;;;5143889;27;20408;-42
2021/09/09 10:23:07;;;;;;;2.70;2.50;;;17.80;99.90;;;;;;5145653;27;20449;-41
2021/09/09 10:25:49;;;;;;;2.60;2.40;;;17.70;99.90;;;;;;5145690;27;20476;-42
2021/09/09 10:28:45;;;;;;;3.23;2.23;;;17.60;99.90;;;;;;5143955;27;20469;-42
2021/09/09 10:31:18;;;;;;;2.53;2.30;;;17.60;99.90;;;;;;5144405;27;20602;-42
2021/09/09 10:33:52;;;;;;;2.63;2.40;;;17.50;99.90;;;;;;5145171;27;20449;-42
2021/09/09 10:36:45;;;;;;;2.37;2.17;;;17.50;99.90;;;;;;5144895;27;20455;-42
2021/09/09 10:39:21;;;;;;;2.37;1.90;;;17.50;99.90;;;;;;5144076;27;20483;-42
2021/09/09 10:41:53;;;;;;;2.63;2.10;;;17.50;99.90;;;;;;5142436;27;20486;-42
2021/09/09 10:44:29;;;;;;;2.33;1.80;;;17.50;99.90;;;;;;5144915;27;20594;-41
2021/09/09 10:47:00;;;;;;;3.13;2.00;;;17.50;99.90;;;;;;5145688;27;20451;-42
2021/09/09 10:49:33;;;;;;;2.53;2.30;;;17.50;99.90;;;;;;5144673;27;20508;-42
2021/09/09 10:52:10;;;;;;;2.10;1.90;;;17.50;99.90;;;;;;5144098;27;20460;-42
2021/09/09 10:55:04;;;;;;;1.80;1.60;;;17.50;99.90;;;;;;5141148;27;20449;-41
2021/09/09 10:57:36;;;;;;;2.20;2.00;;;17.40;99.90;;;;;;5141630;27;20541;-42
2021/09/09 11:00:08;;;;;;;2.57;2.33;;;17.50;99.90;;;;;;5145652;27;20500;-44
2021/09/09 11:02:47;;;;;;;3.00;2.23;;;17.50;99.90;;;;;;5144585;27;20460;-42
2021/09/09 11:05:20;;;;;;;2.70;2.40;;;17.40;99.90;;;;;;5145000;27;20858;-42
2021/09/09 11:07:51;;;;;;;2.43;2.23;;;17.50;99.90;;;;;;5144196;27;20475;-42
2021/09/09 11:10:38;;;;;;;2.80;2.60;;;17.40;99.90;;;;;;5141296;27;20548;-42
2021/09/09 11:13:25;;;;;;;2.40;2.20;;;17.30;99.90;;;;;;5143724;27;20456;-42
2021/09/09 11:15:57;;;;;;;2.50;2.30;;;17.30;99.90;;;;;;5144840;27;20766;-42
2021/09/09 11:18:29;;;;;;;2.67;2.47;;;17.20;99.90;;;;;;5144488;27;20443;-42
2021/09/09 11:21:06;;;;;;;2.37;2.17;;;17.10;99.90;;;;;;5143359;27;20524;-42
2021/09/09 11:23:38;;;;;;;2.77;2.23;;;17.10;99.90;;;;;;5143787;27;20490;-42
2021/09/09 11:26:13;;;;;;;2.57;2.23;;;17.10;99.90;;;;;;5143959;27;20453;-41
2021/09/09 11:28:48;;;;;;;3.03;2.40;;;17.10;99.90;;;;;;5130643;27;20456;-42
2021/09/09 11:31:21;;;;;;;2.67;2.47;;;17.10;99.90;;;;;;5144174;27;20956;-42
2021/09/09 11:33:55;;;;;;;3.67;2.33;;;17.00;99.90;;;;;;5143621;27;20445;-42
2021/09/09 11:36:29;;;;;;;2.77;2.53;;;17.00;99.90;;;;;;5141023;27;20952;-42
2021/09/09 11:39:02;;;;;;;2.00;1.90;;;17.00;99.90;;;;;;5142972;27;20434;-42
2021/09/09 11:41:35;;;;;;;2.60;2.40;;;16.90;99.90;;;;;;5144455;27;20441;-41
2021/09/09 11:44:07;;;;;;;2.67;2.27;;;16.90;99.90;;;;;;5133414;27;20524;-42
2021/09/09 11:46:40;;;;;;;3.57;2.40;;;16.90;99.90;;;;;;5144112;27;20502;-42
2021/09/09 11:49:12;;;;;;;2.73;2.53;;;16.80;99.90;;;;;;5142785;27;20504;-42
2021/09/09 11:51:46;;;;;;;3.40;2.40;;;16.80;99.90;;;;;;5144303;27;21099;-43
2021/09/09 11:54:19;;;;;;;2.50;2.23;;;16.70;99.90;;;;;;5142763;27;20466;-42
2021/09/09 11:56:51;;;;;;;3.10;2.40;;;16.70;99.90;;;;;;5143487;27;20929;-42
2021/09/09 11:59:22;;;;;;;2.80;2.60;;;16.70;99.90;;;;;;5141378;27;20823;-41
2021/09/09 12:02:06;;;;;;;3.50;2.43;;;16.70;99.90;;;;;;5139321;27;20439;-42
2021/09/09 12:04:40;;;;;;;2.70;2.50;;;16.70;99.90;;;;;;5139547;27;20507;-42
2021/09/09 12:07:19;;;;;;;2.73;2.53;;;16.70;99.90;;;;;;5140467;27;20466;-42
2021/09/09 12:09:57;;;;;;;2.53;2.33;;;16.60;99.90;;;;;;5141560;27;20818;-42
2021/09/09 12:12:30;;;;;;;2.60;2.40;;;16.60;99.90;;;;;;5144103;27;20448;-42
2021/09/09 12:15:02;;;;;;;4.10;2.70;;;16.50;99.90;;;;;;5143626;27;20484;-42
2021/09/09 12:17:34;;;;;;;4.13;2.47;;;16.50;99.90;;;;;;5143598;27;21423;-42
2021/09/09 12:20:07;;;;;;;2.10;2.00;;;16.50;99.90;;;;;;5143188;27;20479;-42
2021/09/09 12:23:01;;;;;;;2.23;2.03;;;16.50;99.90;;;;;;5139191;27;20468;-42
2021/09/09 12:25:36;;;;;;;2.50;2.10;;;16.40;99.90;;;;;;5135574;27;20469;-42
2021/09/09 12:28:11;;;;;;;2.83;2.53;;;16.50;99.90;;;;;;5142297;27;20467;-42
2021/09/09 12:30:47;;;;;;;2.90;2.60;;;16.50;99.90;;;;;;5129498;27;20475;-42
2021/09/09 12:33:20;;;;;;;2.27;2.07;;;16.40;99.90;;;;;;5141839;27;20449;-42
2021/09/09 12:36:08;;;;;;;2.70;2.50;;;16.40;99.90;;;;;;5141787;27;20471;-42
2021/09/09 12:38:43;;;;;;;2.40;2.13;;;16.30;99.90;;;;;;5142554;27;20657;-42
2021/09/09 12:41:29;;;;;;;3.20;2.90;;;16.20;99.90;;;;;;5132447;28;20460;-42
2021/09/09 12:44:20;;;;;;;2.80;2.33;;;16.20;99.90;;;;;;5142525;27;20445;-42
2021/09/09 12:46:52;;;;;;;2.80;2.43;;;16.20;99.90;;;;;;5143527;27;20731;-42
2021/09/09 12:49:28;;;;;;;2.63;2.43;;;16.20;99.90;;;;;;5143498;27;20448;-42
2021/09/09 12:52:10;;;;;;;3.07;2.77;;;16.20;99.90;;;;;;5143592;28;20563;-42
2021/09/09 12:54:46;;;;;;;3.03;2.70;;;16.10;99.90;;;;;;5142208;28;20444;-42
2021/09/09 12:57:31;;;;;;;2.50;2.30;;;16.10;99.90;;;;;;5143066;27;20476;-42
2021/09/09 13:00:02;;;;;;;3.00;2.70;;;16.10;99.90;;;;;;5142844;27;20456;-42
2021/09/09 13:02:33;;;;;;;3.97;2.70;;;16.10;99.90;;;;;;5145889;27;20472;-42
2021/09/09 13:05:05;;;;;;;2.87;2.63;;;16.10;99.90;;;;;;5143156;27;20453;-41
2021/09/09 13:07:36;;;;;;;3.03;2.80;;;16.10;99.90;;;;;;5143801;27;20559;-42
2021/09/09 13:10:09;;;;;;;2.70;2.50;;;16.00;99.90;;;;;;5142383;28;20457;-42
2021/09/09 13:12:40;;;;;;;3.70;2.50;;;16.00;99.90;;;;;;5140420;28;20449;-42
2021/09/09 13:15:12;;;;;;;3.97;2.93;;;16.00;99.90;;;;;;5142994;27;20459;-42
2021/09/09 13:17:43;;;;;;;3.13;2.60;;;16.00;99.90;;;;;;5142768;27;20472;-42
2021/09/09 13:20:14;;;;;;;3.27;2.90;;;16.00;99.90;;;;;;5143363;27;20496;-42